createdAt,value
2017-02-28T00:00:05.159Z,987.72
2017-02-28T00:01:18.263Z,987.66
2017-02-28T00:02:31.359Z,987.66
2017-02-28T00:03:44.425Z,987.66
2017-02-28T00:04:57.480Z,987.67
2017-02-28T00:06:10.523Z,987.63
2017-02-28T00:07:23.584Z,987.64
2017-02-28T00:08:36.246Z,987.65
2017-02-28T00:09:48.955Z,987.72
2017-02-28T00:11:02.084Z,987.73
2017-02-28T00:12:15.180Z,987.71
2017-02-28T00:13:27.824Z,987.76
2017-02-28T00:14:40.871Z,987.77
2017-02-28T00:15:53.951Z,987.78
2017-02-28T00:17:07.034Z,987.8
2017-02-28T00:18:19.710Z,987.75
2017-02-28T00:19:32.771Z,987.84
2017-02-28T00:20:45.844Z,987.79
2017-02-28T00:21:58.919Z,987.85
2017-02-28T00:23:11.570Z,987.74
2017-02-28T00:24:23.865Z,987.8
2017-02-28T00:25:36.977Z,987.76
2017-02-28T00:26:50.031Z,987.84
2017-02-28T00:28:03.101Z,987.84
2017-02-28T00:29:16.173Z,987.82
2017-02-28T00:30:29.239Z,987.8
2017-02-28T00:31:42.314Z,987.83
2017-02-28T00:32:55.361Z,987.84
2017-02-28T00:34:08.057Z,987.87
2017-02-28T00:35:21.173Z,987.81
2017-02-28T00:36:34.274Z,987.81
2017-02-28T00:37:47.319Z,987.85
2017-02-28T00:39:00.478Z,987.88
2017-02-28T00:40:13.535Z,987.88
2017-02-28T00:41:26.620Z,987.97
2017-02-28T00:42:39.291Z,987.98
2017-02-28T00:43:52.351Z,988.01
2017-02-28T00:45:05.419Z,988.01
2017-02-28T00:46:18.088Z,987.91
2017-02-28T00:47:30.436Z,987.88
2017-02-28T00:48:43.495Z,987.96
2017-02-28T00:49:56.574Z,987.93
2017-02-28T00:51:09.623Z,987.94
2017-02-28T00:52:22.319Z,987.92
2017-02-28T00:53:35.029Z,987.83
2017-02-28T00:54:48.162Z,987.74
2017-02-28T00:56:01.232Z,987.71
2017-02-28T00:57:14.278Z,987.63
2017-02-28T00:58:26.962Z,987.68
2017-02-28T00:59:40.016Z,987.74
2017-02-28T01:00:53.089Z,987.76
2017-02-28T01:02:06.182Z,987.69
2017-02-28T01:03:18.850Z,987.77
2017-02-28T01:04:31.928Z,987.75
2017-02-28T01:05:45.275Z,987.72
2017-02-28T01:06:58.383Z,987.72
2017-02-28T01:08:11.134Z,987.77
2017-02-28T01:09:24.237Z,987.82
2017-02-28T01:10:37.287Z,987.84
2017-02-28T01:11:50.345Z,987.77
2017-02-28T01:13:03.449Z,987.79
2017-02-28T01:14:16.538Z,987.86
2017-02-28T01:15:29.609Z,987.8
2017-02-28T01:16:42.661Z,987.75
2017-02-28T01:17:55.736Z,987.84
2017-02-28T01:19:08.796Z,987.77
2017-02-28T01:20:21.892Z,987.76
2017-02-28T01:21:34.960Z,987.7
2017-02-28T01:22:47.634Z,987.69
2017-02-28T01:24:00.704Z,987.6
2017-02-28T01:25:13.379Z,987.59
2017-02-28T01:26:26.431Z,987.56
2017-02-28T01:27:39.517Z,987.48
2017-02-28T01:28:52.596Z,987.36
2017-02-28T01:30:05.687Z,987.36
2017-02-28T01:31:18.376Z,987.3
2017-02-28T01:32:31.133Z,987.22
2017-02-28T01:33:43.831Z,987.16
2017-02-28T01:34:56.947Z,987.21
2017-02-28T01:36:09.635Z,987.11
2017-02-28T01:37:22.743Z,987.18
2017-02-28T01:38:35.438Z,987.13
2017-02-28T01:39:48.497Z,987.19
2017-02-28T01:41:01.606Z,987.16
2017-02-28T01:42:14.676Z,987.22
2017-02-28T01:43:27.763Z,987.09
2017-02-28T01:44:40.467Z,987.15
2017-02-28T01:45:53.560Z,987.16
2017-02-28T01:47:06.659Z,987.13
2017-02-28T01:48:19.777Z,987.11
2017-02-28T01:49:32.090Z,987.07
2017-02-28T01:50:45.139Z,986.98
2017-02-28T01:51:58.206Z,986.94
2017-02-28T01:53:11.260Z,986.87
2017-02-28T01:54:24.340Z,986.84
2017-02-28T01:55:37.019Z,986.73
2017-02-28T01:56:50.115Z,986.7
2017-02-28T01:58:03.168Z,986.71
2017-02-28T01:59:16.231Z,986.69
2017-02-28T02:00:29.301Z,986.72
2017-02-28T02:01:42.006Z,986.65
2017-02-28T02:02:55.079Z,986.7
2017-02-28T02:04:08.194Z,986.72
2017-02-28T02:05:21.293Z,986.92
2017-02-28T02:06:34.368Z,987.01
2017-02-28T02:07:47.464Z,986.99
2017-02-28T02:09:00.560Z,987.03
2017-02-28T02:10:13.607Z,987.03
2017-02-28T02:11:26.301Z,987.01
2017-02-28T02:12:39.369Z,986.99
2017-02-28T02:13:52.489Z,987.04
2017-02-28T02:15:05.610Z,987.03
2017-02-28T02:16:18.690Z,987.01
2017-02-28T02:17:31.768Z,986.95
2017-02-28T02:18:44.864Z,986.96
2017-02-28T02:19:57.943Z,986.87
2017-02-28T02:21:10.617Z,986.84
2017-02-28T02:22:23.960Z,986.89
2017-02-28T02:23:37.047Z,986.9
2017-02-28T02:24:50.101Z,986.95
2017-02-28T02:26:02.819Z,986.96
2017-02-28T02:27:15.876Z,986.92
2017-02-28T02:28:28.959Z,986.88
2017-02-28T02:29:42.010Z,986.78
2017-02-28T02:30:55.108Z,986.8
2017-02-28T02:32:08.194Z,986.77
2017-02-28T02:33:21.270Z,986.83
2017-02-28T02:34:33.969Z,986.8
2017-02-28T02:35:46.660Z,986.78
2017-02-28T02:36:59.402Z,986.67
2017-02-28T02:38:12.477Z,986.62
2017-02-28T02:39:25.143Z,986.5
2017-02-28T02:40:38.222Z,986.58
2017-02-28T02:41:51.289Z,986.55
2017-02-28T02:43:04.442Z,986.52
2017-02-28T02:44:17.531Z,986.45
2017-02-28T02:45:30.676Z,986.54
2017-02-28T02:46:43.759Z,986.45
2017-02-28T02:47:56.826Z,986.38
2017-02-28T02:49:09.885Z,986.24
2017-02-28T02:50:22.989Z,986.14
2017-02-28T02:51:36.088Z,986.13
2017-02-28T02:52:48.786Z,986.27
2017-02-28T02:54:01.881Z,986.36
2017-02-28T02:55:14.581Z,986.28
2017-02-28T02:56:27.272Z,986.23
2017-02-28T02:57:40.315Z,986.31
2017-02-28T02:58:53.428Z,986.41
2017-02-28T03:00:06.499Z,986.59
2017-02-28T03:01:18.780Z,986.64
2017-02-28T03:02:31.845Z,986.67
2017-02-28T03:03:44.897Z,986.67
2017-02-28T03:04:58.282Z,986.68
2017-02-28T03:06:10.963Z,986.85
2017-02-28T03:07:23.659Z,986.93
2017-02-28T03:08:36.005Z,986.9
2017-02-28T03:09:49.076Z,986.92
2017-02-28T03:11:02.165Z,986.87
2017-02-28T03:12:15.258Z,986.72
2017-02-28T03:13:27.940Z,986.71
2017-02-28T03:14:41.064Z,986.79
2017-02-28T03:15:54.145Z,986.89
2017-02-28T03:17:07.249Z,986.94
2017-02-28T03:18:19.910Z,986.92
2017-02-28T03:19:32.215Z,986.86
2017-02-28T03:20:45.282Z,986.93
2017-02-28T03:21:58.340Z,986.92
2017-02-28T03:23:11.429Z,986.89
2017-02-28T03:24:24.502Z,986.86
2017-02-28T03:25:37.565Z,986.94
2017-02-28T03:26:50.896Z,986.86
2017-02-28T03:28:03.591Z,986.86
2017-02-28T03:29:16.681Z,986.73
2017-02-28T03:30:29.006Z,986.68
2017-02-28T03:31:41.723Z,986.66
2017-02-28T03:32:54.375Z,986.67
2017-02-28T03:34:07.486Z,986.58
2017-02-28T03:35:20.532Z,986.57
2017-02-28T03:36:33.606Z,986.5
2017-02-28T03:37:46.305Z,986.39
2017-02-28T03:38:59.348Z,986.5
2017-02-28T03:40:12.444Z,986.42
2017-02-28T03:41:25.471Z,986.55
2017-02-28T03:42:38.154Z,986.57
2017-02-28T03:43:51.227Z,986.54
2017-02-28T03:45:04.281Z,986.47
2017-02-28T03:46:16.966Z,986.52
2017-02-28T03:47:29.272Z,986.45
2017-02-28T03:48:42.340Z,986.53
2017-02-28T03:49:55.416Z,986.51
2017-02-28T03:51:08.100Z,986.52
2017-02-28T03:52:20.759Z,986.49
2017-02-28T03:53:33.444Z,986.54
2017-02-28T03:54:46.544Z,986.52
2017-02-28T03:55:59.621Z,986.53
2017-02-28T03:57:12.667Z,986.53
2017-02-28T03:58:25.763Z,986.52
2017-02-28T03:59:38.831Z,986.51
2017-02-28T04:00:51.894Z,986.34
2017-02-28T04:02:04.965Z,986.27
2017-02-28T04:03:18.065Z,986.21
2017-02-28T04:04:30.338Z,986.24
2017-02-28T04:05:43.388Z,986.36
2017-02-28T04:06:56.457Z,986.38
2017-02-28T04:08:09.544Z,986.47
2017-02-28T04:09:22.597Z,986.58
2017-02-28T04:10:35.271Z,986.5
2017-02-28T04:11:48.323Z,986.57
2017-02-28T04:13:01.436Z,986.57
2017-02-28T04:14:14.504Z,986.7
2017-02-28T04:15:27.569Z,986.76
2017-02-28T04:16:39.892Z,986.65
2017-02-28T04:17:52.945Z,986.61
2017-02-28T04:19:06.004Z,986.59
2017-02-28T04:20:18.704Z,986.57
2017-02-28T04:21:31.404Z,986.51
2017-02-28T04:22:44.451Z,986.48
2017-02-28T04:23:57.522Z,986.43
2017-02-28T04:25:10.201Z,986.4
2017-02-28T04:26:22.137Z,986.34
2017-02-28T04:27:35.211Z,986.38
2017-02-28T04:28:48.305Z,986.41
2017-02-28T04:30:01.355Z,986.4
2017-02-28T04:31:14.065Z,986.41
2017-02-28T04:32:26.798Z,986.37
2017-02-28T04:33:39.868Z,986.5
2017-02-28T04:34:52.609Z,986.46
2017-02-28T04:36:05.701Z,986.51
2017-02-28T04:37:19.067Z,986.63
2017-02-28T04:38:30.972Z,986.65
2017-02-28T04:39:43.646Z,986.74
2017-02-28T04:40:56.721Z,986.83
2017-02-28T04:42:09.803Z,986.87
2017-02-28T04:43:22.861Z,986.92
2017-02-28T04:44:35.553Z,986.98
2017-02-28T04:45:48.651Z,987.01
2017-02-28T04:47:01.774Z,987.03
2017-02-28T04:48:14.882Z,987.04
2017-02-28T04:49:27.590Z,987.1
2017-02-28T04:50:40.650Z,987.12
2017-02-28T04:51:53.706Z,987.06
2017-02-28T04:53:06.427Z,987.15
2017-02-28T04:54:19.097Z,987.12
2017-02-28T04:55:31.820Z,987.09
2017-02-28T04:56:44.486Z,987.06
2017-02-28T04:57:57.535Z,987.02
2017-02-28T04:59:10.612Z,986.73
2017-02-28T05:00:23.729Z,986.81
2017-02-28T05:01:36.791Z,986.75
2017-02-28T05:02:49.867Z,986.93
2017-02-28T05:04:02.933Z,987.01
2017-02-28T05:05:16.300Z,987.03
2017-02-28T05:06:29.357Z,987.04
2017-02-28T05:07:42.421Z,987.08
2017-02-28T05:08:55.538Z,987.06
2017-02-28T05:10:08.613Z,987.03
2017-02-28T05:11:21.664Z,986.97
2017-02-28T05:12:34.786Z,986.94
2017-02-28T05:13:47.855Z,986.96
2017-02-28T05:15:00.930Z,986.89
2017-02-28T05:16:13.246Z,986.86
2017-02-28T05:17:25.927Z,986.88
2017-02-28T05:18:39.041Z,986.79
2017-02-28T05:19:51.736Z,986.74
2017-02-28T05:21:04.451Z,986.75
2017-02-28T05:22:17.155Z,986.66
2017-02-28T05:23:30.249Z,986.69
2017-02-28T05:24:43.299Z,986.76
2017-02-28T05:25:56.367Z,986.74
2017-02-28T05:27:09.105Z,986.79
2017-02-28T05:28:22.155Z,986.77
2017-02-28T05:29:35.255Z,986.67
2017-02-28T05:30:47.974Z,986.66
2017-02-28T05:32:01.315Z,986.75
2017-02-28T05:33:14.391Z,986.69
2017-02-28T05:34:27.478Z,986.64
2017-02-28T05:35:40.523Z,986.67
2017-02-28T05:36:53.577Z,986.72
2017-02-28T05:38:06.654Z,986.7
2017-02-28T05:39:19.693Z,986.73
2017-02-28T05:40:32.767Z,986.75
2017-02-28T05:41:45.842Z,986.82
2017-02-28T05:42:58.949Z,986.81
2017-02-28T05:44:12.052Z,986.93
2017-02-28T05:45:25.148Z,986.92
2017-02-28T05:46:38.227Z,987.03
2017-02-28T05:47:50.920Z,987.09
2017-02-28T05:49:04.239Z,987.09
2017-02-28T05:50:17.309Z,987.09
2017-02-28T05:51:30.377Z,987.05
2017-02-28T05:52:43.432Z,987.13
2017-02-28T05:53:56.498Z,987.07
2017-02-28T05:55:09.568Z,987.1
2017-02-28T05:56:22.619Z,987.09
2017-02-28T05:57:35.711Z,987.1
2017-02-28T05:58:48.783Z,987.11
2017-02-28T06:00:02.078Z,987.13
2017-02-28T06:01:14.749Z,987.1
2017-02-28T06:02:27.469Z,987.19
2017-02-28T06:03:40.161Z,987.24
2017-02-28T06:04:53.225Z,987.33
2017-02-28T06:06:06.308Z,987.31
2017-02-28T06:07:19.045Z,987.22
2017-02-28T06:08:32.125Z,987.18
2017-02-28T06:09:45.228Z,987.35
2017-02-28T06:10:58.293Z,987.23
2017-02-28T06:12:11.387Z,987.29
2017-02-28T06:13:24.104Z,987.26
2017-02-28T06:14:37.166Z,987.37
2017-02-28T06:15:50.224Z,987.31
2017-02-28T06:17:03.323Z,987.34
2017-02-28T06:18:16.341Z,987.51
2017-02-28T06:19:29.013Z,987.52
2017-02-28T06:20:42.104Z,987.5
2017-02-28T06:21:55.150Z,987.56
2017-02-28T06:23:07.824Z,987.48
2017-02-28T06:24:20.537Z,987.45
2017-02-28T06:25:33.613Z,987.32
2017-02-28T06:26:46.663Z,987.41
2017-02-28T06:27:59.726Z,987.48
2017-02-28T06:29:12.422Z,987.39
2017-02-28T06:30:25.127Z,987.52
2017-02-28T06:31:38.209Z,987.5
2017-02-28T06:32:50.546Z,987.73
2017-02-28T06:34:03.637Z,987.76
2017-02-28T06:35:16.308Z,987.68
2017-02-28T06:36:29.029Z,987.59
2017-02-28T06:37:42.075Z,987.52
2017-02-28T06:38:55.165Z,987.44
2017-02-28T06:40:08.249Z,987.52
2017-02-28T06:41:20.954Z,987.52
2017-02-28T06:42:33.640Z,987.49
2017-02-28T06:43:46.328Z,987.54
2017-02-28T06:44:59.375Z,987.52
2017-02-28T06:46:12.445Z,987.51
2017-02-28T06:47:24.766Z,987.55
2017-02-28T06:48:37.459Z,987.62
2017-02-28T06:49:50.130Z,987.68
2017-02-28T06:51:03.246Z,987.6
2017-02-28T06:52:16.356Z,987.65
2017-02-28T06:53:28.260Z,987.72
2017-02-28T06:54:40.988Z,987.8
2017-02-28T06:55:54.061Z,987.74
2017-02-28T06:57:07.110Z,987.8
2017-02-28T06:58:19.848Z,987.74
2017-02-28T06:59:32.998Z,987.8
2017-02-28T07:00:45.696Z,987.88
2017-02-28T07:01:58.771Z,987.96
2017-02-28T07:03:11.856Z,988
2017-02-28T07:04:24.523Z,987.96
2017-02-28T07:05:37.180Z,987.97
2017-02-28T07:06:50.265Z,987.97
2017-02-28T07:08:03.336Z,987.92
2017-02-28T07:09:16.056Z,987.84
2017-02-28T07:10:28.716Z,987.76
2017-02-28T07:11:41.410Z,987.81
2017-02-28T07:12:54.495Z,987.91
2017-02-28T07:14:07.554Z,987.95
2017-02-28T07:15:20.646Z,988.09
2017-02-28T07:16:33.692Z,988.07
2017-02-28T07:17:46.382Z,988.08
2017-02-28T07:18:59.412Z,988.01
2017-02-28T07:20:12.472Z,987.91
2017-02-28T07:21:25.816Z,987.93
2017-02-28T07:22:38.873Z,987.95
2017-02-28T07:23:51.936Z,988.01
2017-02-28T07:25:05.032Z,987.94
2017-02-28T07:26:18.134Z,987.85
2017-02-28T07:27:31.223Z,988.02
2017-02-28T07:28:43.923Z,988.07
2017-02-28T07:29:56.987Z,988.03
2017-02-28T07:31:10.082Z,988.1
2017-02-28T07:32:23.156Z,988.06
2017-02-28T07:33:35.449Z,988.23
2017-02-28T07:34:48.581Z,988.1
2017-02-28T07:36:01.667Z,988.07
2017-02-28T07:37:14.970Z,988.07
2017-02-28T07:38:27.640Z,988.25
2017-02-28T07:39:40.711Z,988.33
2017-02-28T07:40:53.803Z,988.31
2017-02-28T07:42:06.480Z,988.28
2017-02-28T07:43:18.798Z,988.18
2017-02-28T07:44:31.490Z,988.05
2017-02-28T07:45:44.569Z,988.13
2017-02-28T07:46:57.687Z,988.14
2017-02-28T07:48:10.810Z,988.26
2017-02-28T07:49:23.507Z,988.31
2017-02-28T07:50:36.565Z,988.35
2017-02-28T07:51:49.639Z,988.43
2017-02-28T07:53:02.740Z,988.5
2017-02-28T07:54:15.454Z,988.39
2017-02-28T07:55:28.151Z,988.48
2017-02-28T07:56:41.204Z,988.52
2017-02-28T07:57:54.254Z,988.52
2017-02-28T07:59:07.338Z,988.4
2017-02-28T08:00:20.411Z,988.44
2017-02-28T08:01:33.091Z,988.48
2017-02-28T08:02:46.164Z,988.45
2017-02-28T08:03:59.260Z,988.46
2017-02-28T08:05:12.352Z,988.53
2017-02-28T08:06:25.497Z,988.47
2017-02-28T08:07:38.169Z,988.52
2017-02-28T08:08:51.285Z,988.46
2017-02-28T08:10:04.356Z,988.44
2017-02-28T08:11:17.028Z,988.55
2017-02-28T08:12:30.124Z,988.56
2017-02-28T08:13:43.186Z,988.58
2017-02-28T08:14:56.243Z,988.56
2017-02-28T08:16:09.266Z,988.59
2017-02-28T08:17:21.982Z,988.61
2017-02-28T08:18:35.048Z,988.6
2017-02-28T08:19:47.748Z,988.58
2017-02-28T08:21:00.870Z,988.65
2017-02-28T08:22:13.936Z,988.61
2017-02-28T08:23:27.002Z,988.58
2017-02-28T08:24:39.662Z,988.54
2017-02-28T08:25:52.752Z,988.58
2017-02-28T08:27:05.473Z,988.72
2017-02-28T08:28:18.547Z,988.61
2017-02-28T08:29:31.244Z,988.54
2017-02-28T08:30:43.913Z,988.61
2017-02-28T08:31:56.986Z,988.62
2017-02-28T08:33:10.102Z,988.58
2017-02-28T08:34:23.190Z,988.58
2017-02-28T08:35:36.275Z,988.68
2017-02-28T08:36:48.945Z,988.66
2017-02-28T08:38:01.655Z,988.71
2017-02-28T08:39:14.714Z,988.68
2017-02-28T08:40:27.779Z,988.69
2017-02-28T08:41:40.844Z,988.83
2017-02-28T08:42:53.568Z,988.75
2017-02-28T08:44:06.621Z,988.78
2017-02-28T08:45:19.306Z,988.74
2017-02-28T08:46:31.609Z,988.67
2017-02-28T08:47:44.681Z,988.71
2017-02-28T08:48:57.327Z,988.76
2017-02-28T08:50:10.396Z,988.78
2017-02-28T08:51:23.493Z,988.82
2017-02-28T08:52:36.231Z,988.84
2017-02-28T08:53:48.156Z,988.58
2017-02-28T08:55:01.248Z,988.62
2017-02-28T08:56:14.291Z,988.64
2017-02-28T08:57:27.369Z,988.7
2017-02-28T08:58:40.045Z,988.77
2017-02-28T08:59:53.110Z,988.79
2017-02-28T09:01:05.801Z,988.75
2017-02-28T09:02:18.502Z,988.87
2017-02-28T09:03:31.577Z,988.83
2017-02-28T09:04:44.891Z,988.87
2017-02-28T09:05:58.008Z,988.98
2017-02-28T09:07:10.711Z,989.04
2017-02-28T09:08:23.862Z,989.02
2017-02-28T09:09:36.206Z,989.11
2017-02-28T09:10:48.892Z,989.24
2017-02-28T09:12:01.995Z,989.12
2017-02-28T09:13:15.065Z,988.98
2017-02-28T09:14:28.183Z,988.94
2017-02-28T09:15:40.890Z,988.89
2017-02-28T09:16:53.949Z,988.75
2017-02-28T09:18:07.081Z,988.8
2017-02-28T09:19:20.175Z,988.69
2017-02-28T09:20:33.249Z,988.69
2017-02-28T09:21:45.936Z,988.74
2017-02-28T09:22:58.982Z,988.81
2017-02-28T09:24:12.032Z,988.93
2017-02-28T09:25:25.095Z,988.95
2017-02-28T09:26:38.213Z,988.98
2017-02-28T09:27:51.259Z,988.83
2017-02-28T09:29:04.370Z,988.87
2017-02-28T09:30:17.049Z,988.91
2017-02-28T09:31:29.399Z,988.93
2017-02-28T09:32:42.502Z,988.93
2017-02-28T09:33:55.249Z,988.91
2017-02-28T09:35:07.962Z,988.86
2017-02-28T09:36:21.065Z,988.84
2017-02-28T09:37:34.187Z,988.91
2017-02-28T09:38:47.301Z,988.92
2017-02-28T09:40:00.353Z,988.94
2017-02-28T09:41:13.055Z,989.03
2017-02-28T09:42:26.388Z,988.91
2017-02-28T09:43:39.442Z,988.94
2017-02-28T09:44:52.509Z,988.88
2017-02-28T09:46:05.571Z,988.88
2017-02-28T09:47:18.258Z,988.87
2017-02-28T09:48:30.968Z,988.96
2017-02-28T09:49:43.670Z,988.99
2017-02-28T09:50:56.742Z,989.03
2017-02-28T09:52:09.814Z,989.04
2017-02-28T09:53:22.884Z,989.07
2017-02-28T09:54:36.054Z,988.89
2017-02-28T09:55:48.740Z,988.76
2017-02-28T09:57:01.810Z,988.93
2017-02-28T09:58:14.909Z,988.95
2017-02-28T09:59:28.214Z,988.95
2017-02-28T10:00:41.305Z,989.01
2017-02-28T10:01:53.956Z,989.06
2017-02-28T10:03:07.027Z,988.98
2017-02-28T10:04:20.121Z,988.97
2017-02-28T10:05:33.189Z,989
2017-02-28T10:06:46.285Z,988.94
2017-02-28T10:07:59.356Z,988.96
2017-02-28T10:09:12.406Z,989.01
2017-02-28T10:10:25.507Z,989.05
2017-02-28T10:11:38.622Z,989.04
2017-02-28T10:12:51.689Z,989.05
2017-02-28T10:14:04.414Z,989.05
2017-02-28T10:15:17.509Z,989.06
2017-02-28T10:16:30.604Z,989.07
2017-02-28T10:17:42.878Z,989.07
2017-02-28T10:18:55.564Z,988.97
2017-02-28T10:20:08.642Z,989.02
2017-02-28T10:21:21.335Z,989.08
2017-02-28T10:22:34.386Z,989.03
2017-02-28T10:23:45.927Z,989.09
2017-02-28T10:24:58.598Z,989.05
2017-02-28T10:26:11.662Z,989.1
2017-02-28T10:27:24.735Z,989.13
2017-02-28T10:28:37.828Z,989.2
2017-02-28T10:29:50.552Z,989.17
2017-02-28T10:31:03.284Z,989.21
2017-02-28T10:32:16.001Z,989.26
2017-02-28T10:33:28.745Z,989.22
2017-02-28T10:34:41.440Z,989.15
2017-02-28T10:35:54.540Z,989.12
2017-02-28T10:37:07.662Z,988.94
2017-02-28T10:38:20.320Z,988.97
2017-02-28T10:39:33.004Z,988.95
2017-02-28T10:40:45.722Z,989
2017-02-28T10:41:58.772Z,989
2017-02-28T10:43:11.854Z,989
2017-02-28T10:44:24.917Z,989.07
2017-02-28T10:45:36.858Z,988.95
2017-02-28T10:46:49.925Z,988.94
2017-02-28T10:48:02.988Z,988.98
2017-02-28T10:49:16.059Z,988.98
2017-02-28T10:50:28.730Z,988.99
2017-02-28T10:51:41.808Z,988.99
2017-02-28T10:52:54.855Z,988.93
2017-02-28T10:54:07.930Z,989.09
2017-02-28T10:55:21.046Z,989.09
2017-02-28T10:56:34.117Z,989.15
2017-02-28T10:57:47.167Z,989.01
2017-02-28T10:59:00.138Z,988.93
2017-02-28T11:00:12.829Z,988.87
2017-02-28T11:01:25.503Z,989.06
2017-02-28T11:02:38.629Z,988.94
2017-02-28T11:03:51.323Z,988.79
2017-02-28T11:05:04.433Z,989.05
2017-02-28T11:06:17.512Z,989.07
2017-02-28T11:07:30.608Z,988.83
2017-02-28T11:08:42.917Z,988.85
2017-02-28T11:09:55.591Z,988.77
2017-02-28T11:11:08.660Z,988.74
2017-02-28T11:12:21.717Z,988.67
2017-02-28T11:13:34.792Z,988.74
2017-02-28T11:14:47.489Z,988.69
2017-02-28T11:16:00.560Z,988.67
2017-02-28T11:17:13.649Z,988.66
2017-02-28T11:18:26.339Z,988.63
2017-02-28T11:19:39.390Z,988.63
2017-02-28T11:20:52.383Z,988.68
2017-02-28T11:22:05.084Z,988.73
2017-02-28T11:23:18.234Z,988.53
2017-02-28T11:24:30.918Z,988.63
2017-02-28T11:25:43.597Z,988.71
2017-02-28T11:26:56.270Z,988.79
2017-02-28T11:28:09.314Z,988.67
2017-02-28T11:29:22.361Z,988.72
2017-02-28T11:30:35.443Z,988.66
2017-02-28T11:31:48.543Z,988.76
2017-02-28T11:33:01.643Z,988.74
2017-02-28T11:34:14.731Z,988.75
2017-02-28T11:35:27.781Z,988.67
2017-02-28T11:36:40.463Z,988.69
2017-02-28T11:37:53.581Z,988.71
2017-02-28T11:39:06.648Z,988.73
2017-02-28T11:40:19.717Z,988.65
2017-02-28T11:41:32.471Z,988.67
2017-02-28T11:42:44.406Z,988.76
2017-02-28T11:43:57.087Z,988.49
2017-02-28T11:45:09.749Z,988.65
2017-02-28T11:46:22.829Z,988.7
2017-02-28T11:47:35.519Z,988.57
2017-02-28T11:48:48.615Z,988.5
2017-02-28T11:50:01.661Z,988.33
2017-02-28T11:51:14.724Z,988.26
2017-02-28T11:52:27.806Z,988.31
2017-02-28T11:53:40.483Z,988.3
2017-02-28T11:54:53.563Z,988.29
2017-02-28T11:56:06.636Z,988.23
2017-02-28T11:57:19.754Z,988.18
2017-02-28T11:58:32.824Z,988.25
2017-02-28T11:59:45.995Z,988.17
2017-02-28T12:00:58.298Z,988.2
2017-02-28T12:02:11.346Z,988.27
2017-02-28T12:03:24.015Z,988.17
2017-02-28T12:04:37.070Z,988.11
2017-02-28T12:05:49.813Z,988.24
2017-02-28T12:07:02.512Z,988.22
2017-02-28T12:08:15.580Z,988.22
2017-02-28T12:09:28.620Z,988.22
2017-02-28T12:10:41.715Z,988.1
2017-02-28T12:11:54.814Z,988.05
2017-02-28T12:13:07.532Z,988.06
2017-02-28T12:14:20.620Z,987.95
2017-02-28T12:15:33.691Z,987.94
2017-02-28T12:16:46.768Z,988
2017-02-28T12:17:59.458Z,988.15
2017-02-28T12:19:12.582Z,988.24
2017-02-28T12:20:25.686Z,988.14
2017-02-28T12:21:38.637Z,988.07
2017-02-28T12:22:51.703Z,988.26
2017-02-28T12:24:04.787Z,988.06
2017-02-28T12:25:17.869Z,988.14
2017-02-28T12:26:30.939Z,987.93
2017-02-28T12:27:43.607Z,988.17
2017-02-28T12:28:56.674Z,988.1
2017-02-28T12:30:09.766Z,988.1
2017-02-28T12:31:22.430Z,987.98
2017-02-28T12:32:35.119Z,988.18
2017-02-28T12:33:48.180Z,988.16
2017-02-28T12:35:01.239Z,988.16
2017-02-28T12:36:14.311Z,988.22
2017-02-28T12:37:27.417Z,988.16
2017-02-28T12:38:40.479Z,988.1
2017-02-28T12:39:53.167Z,988.29
2017-02-28T12:41:05.867Z,988.23
2017-02-28T12:42:18.958Z,988.25
2017-02-28T12:43:32.031Z,988.17
2017-02-28T12:44:45.128Z,988.12
2017-02-28T12:45:58.191Z,988.09
2017-02-28T12:47:11.274Z,988.16
2017-02-28T12:48:23.592Z,988.18
2017-02-28T12:49:36.687Z,988.25
2017-02-28T12:50:49.759Z,988.18
2017-02-28T12:52:02.855Z,988.18
2017-02-28T12:53:15.574Z,988.17
2017-02-28T12:54:28.669Z,988.12
2017-02-28T12:55:40.659Z,988.25
2017-02-28T12:56:53.726Z,988.23
2017-02-28T12:58:06.823Z,988.24
2017-02-28T12:59:20.231Z,988.18
2017-02-28T13:00:33.375Z,988.14
2017-02-28T13:01:46.492Z,988.24
2017-02-28T13:02:59.642Z,988.22
2017-02-28T13:04:12.734Z,988.21
2017-02-28T13:05:25.406Z,988.06
2017-02-28T13:06:38.529Z,988.09
2017-02-28T13:07:51.597Z,988.13
2017-02-28T13:09:04.672Z,987.94
2017-02-28T13:10:17.731Z,987.98
2017-02-28T13:11:30.789Z,987.94
2017-02-28T13:12:43.481Z,988.01
2017-02-28T13:13:56.224Z,987.97
2017-02-28T13:15:09.279Z,987.94
2017-02-28T13:16:22.436Z,987.98
2017-02-28T13:17:35.531Z,987.99
2017-02-28T13:18:47.838Z,988.05
2017-02-28T13:20:00.959Z,988.16
2017-02-28T13:21:14.329Z,987.97
2017-02-28T13:22:27.401Z,988.04
2017-02-28T13:23:40.497Z,987.96
2017-02-28T13:24:53.543Z,987.94
2017-02-28T13:26:06.235Z,987.82
2017-02-28T13:27:18.911Z,987.84
2017-02-28T13:28:31.970Z,987.74
2017-02-28T13:29:45.044Z,987.72
2017-02-28T13:30:58.148Z,987.74
2017-02-28T13:32:11.259Z,987.87
2017-02-28T13:33:23.936Z,987.95
2017-02-28T13:34:37.014Z,987.88
2017-02-28T13:35:49.708Z,987.86
2017-02-28T13:37:02.766Z,987.89
2017-02-28T13:38:15.870Z,987.95
2017-02-28T13:39:28.936Z,987.89
2017-02-28T13:40:42.013Z,987.75
2017-02-28T13:41:55.127Z,987.85
2017-02-28T13:43:08.178Z,987.81
2017-02-28T13:44:21.244Z,987.92
2017-02-28T13:45:34.320Z,987.82
2017-02-28T13:46:47.369Z,987.8
2017-02-28T13:48:00.461Z,987.77
2017-02-28T13:49:13.182Z,987.72
2017-02-28T13:50:25.904Z,987.72
2017-02-28T13:51:39.001Z,987.87
2017-02-28T13:52:51.695Z,987.84
2017-02-28T13:54:04.770Z,987.82
2017-02-28T13:55:17.454Z,987.87
2017-02-28T13:56:30.554Z,987.92
2017-02-28T13:57:43.249Z,987.91
2017-02-28T13:58:55.927Z,987.99
2017-02-28T14:00:09.019Z,987.99
2017-02-28T14:01:22.059Z,987.98
2017-02-28T14:02:35.130Z,988.12
2017-02-28T14:03:48.188Z,988.07
2017-02-28T14:05:01.278Z,988.03
2017-02-28T14:06:14.374Z,988.07
2017-02-28T14:07:27.445Z,988.12
2017-02-28T14:08:40.509Z,988.06
2017-02-28T14:09:53.588Z,988.12
2017-02-28T14:11:06.650Z,988.16
2017-02-28T14:12:19.359Z,988.15
2017-02-28T14:13:32.080Z,988.09
2017-02-28T14:14:45.214Z,988.08
2017-02-28T14:15:58.300Z,988.06
2017-02-28T14:17:11.383Z,988.02
2017-02-28T14:18:24.464Z,987.9
2017-02-28T14:19:36.797Z,987.88
2017-02-28T14:20:49.921Z,987.77
2017-02-28T14:22:02.589Z,987.79
2017-02-28T14:23:15.659Z,987.83
2017-02-28T14:24:28.420Z,987.76
2017-02-28T14:25:41.501Z,987.71
2017-02-28T14:26:54.613Z,987.59
2017-02-28T14:28:07.703Z,987.52
2017-02-28T14:29:20.764Z,987.45
2017-02-28T14:30:33.896Z,987.33
2017-02-28T14:31:46.567Z,987.35
2017-02-28T14:32:59.644Z,987.35
2017-02-28T14:34:12.710Z,987.27
2017-02-28T14:35:25.819Z,987.21
2017-02-28T14:36:38.903Z,987.15
2017-02-28T14:37:51.950Z,987.17
2017-02-28T14:39:05.035Z,987.11
2017-02-28T14:40:18.109Z,987.02
2017-02-28T14:41:30.783Z,987.04
2017-02-28T14:42:43.869Z,987.04
2017-02-28T14:43:56.949Z,987.03
2017-02-28T14:45:10.065Z,987.07
2017-02-28T14:46:23.167Z,986.99
2017-02-28T14:47:35.863Z,987.04
2017-02-28T14:48:48.989Z,987.02
2017-02-28T14:50:01.694Z,986.99
2017-02-28T14:51:14.429Z,986.96
2017-02-28T14:52:27.544Z,986.96
2017-02-28T14:53:40.582Z,987.01
2017-02-28T14:54:53.713Z,986.98
2017-02-28T14:56:06.784Z,987.05
2017-02-28T14:57:19.868Z,986.92
2017-02-28T14:58:32.944Z,986.92
2017-02-28T14:59:46.040Z,986.9
2017-02-28T15:00:59.110Z,986.92
2017-02-28T15:02:11.414Z,986.86
2017-02-28T15:03:24.514Z,986.84
2017-02-28T15:04:37.673Z,986.83
2017-02-28T15:05:50.740Z,986.95
2017-02-28T15:07:03.811Z,986.97
2017-02-28T15:08:16.891Z,986.94
2017-02-28T15:09:29.981Z,986.98
2017-02-28T15:10:43.075Z,987
2017-02-28T15:11:56.155Z,987.02